Damanhour, Egypt

17:06 EET 18. Duben 2015 (GMT +0200)
Borg El Arab International | | Change Station
CLOSE
Current Station
Letiště
Location: Alexandria Borg El Arab,
Nadmořská výška: 174 ft
Poblíž povětrnostní stanice

Výška 174 ft 30.92 °N, 29.70 °E | Updated 1 hour ago

Clear
Jasno
73 °F
Pocit jako 73 °F
S
13
Vítr proměnlivý Vítr od severní

Dnes
Vysoké -- | Nízké -- °F
--% Možnost srážek
Včera
Vysoké -- | Nízké -- °F
Precip. -- inčů
5:27 AM 6:28 PM
Ubývající srpek, 0% visible
Tlak 30.15 inčů
Viditelnost -9999.0 mílí
Zataženo
Rosný bod 43 °F
Vlhkost 33%
Dešťové srážky 0.00 inčů
Sněhová pokrývka Není k dispozici
UV záření Není k dispozici
Pyl Není k dispozici
Kvalita ovzduší Není k dispozici
Flu Activity Není k dispozici
METAR HEBA 181400Z 35011KT CAVOK 23/06 Q1021 NOSIG

More Conditions Fewer Conditions

Tlak 30.15 inčů
Viditelnost -9999.0 mílí
Zataženo
Rosný bod 43 °F
Vlhkost 33%
Dešťové srážky 0.00 inčů
Sněhová pokrývka Není k dispozici
UV záření Není k dispozici
Pyl Není k dispozici
Kvalita ovzduší Není k dispozici
Flu Activity Není k dispozici
METAR HEBA 181400Z 35011KT CAVOK 23/06 Q1021 NOSIG

More Conditions Fewer Conditions

10-Day Weather Forecast

Almanac

Astronomie

Apr. 18, 2015 Východ Západ
Skutečný čas
Občanský soumrak
Námořní soumrak
Astronomický soumrak
Měsíc
Délka denního světla
Délka dne
Tomorrow will be .
, % of the Moon is Illuminated

Dnešní extrémy

Nejvyšší hodnoty ve státě Nejnižší hodnoty ve státě

Community

WunderPhotos

Upload Photos

1,814,424 snímků staženo!

WunderBlogs® & News

Nearby

Kvalita ovzduší

  Kvalita ovzduší Index kvality ovzduší Polutant
Not available.

Výška sněhu

Station Hloubka Nadmořská výška

Seizmická činnost

Město Distance Mag. Čas & datum
Minimální zobrazený rozsah je 2.5.

Pobřežní teplota vody

Lokalita Teplota

Stations

Poblíž povětrnostní stanice

Lokace stanice Tepl. Ochlazování větrem Rosný bod Vlhkost Vítr Precip. Výška Čas hlášení Typ